createdAt,value
2023-02-25T00:03:22.437Z,98246.84
2023-02-25T00:08:26.850Z,98257.59
2023-02-25T00:13:30.406Z,98253.91
2023-02-25T00:18:33.236Z,98252.22
2023-02-25T00:23:37.611Z,98236.91
2023-02-25T00:28:41.381Z,98237.06
2023-02-25T00:33:44.563Z,98236.91
2023-02-25T00:38:49.342Z,98242.28
2023-02-25T00:43:54.092Z,98242.28
2023-02-25T00:48:56.960Z,98241.44
2023-02-25T00:54:01.112Z,98257.59
2023-02-25T00:59:03.917Z,98252.38
2023-02-25T01:04:06.887Z,98255.94
2023-02-25T01:09:13.820Z,98252.38
2023-02-25T01:14:19.941Z,98238.94
2023-02-25T01:19:25.125Z,98240.59
2023-02-25T01:24:31.308Z,98234.38
2023-02-25T01:29:39.298Z,98232.69
2023-02-25T01:34:42.973Z,98236.06
2023-02-25T01:39:47.496Z,98239.75
2023-02-25T01:45:24.492Z,98233.38
2023-02-25T01:50:34.005Z,98229.00
2023-02-25T01:55:41.227Z,98226.31
2023-02-25T02:00:45.180Z,98226.47
2023-02-25T02:05:57.102Z,98233.53
2023-02-25T02:11:02.373Z,98229.00
2023-02-25T02:16:27.641Z,98234.38
2023-02-25T02:21:51.631Z,98232.53
2023-02-25T02:27:02.243Z,98232.69
2023-02-25T02:32:15.882Z,98231.84
2023-02-25T02:37:31.281Z,98228.28
2023-02-25T02:42:42.173Z,98227.44
2023-02-25T02:47:51.023Z,98228.47
2023-02-25T02:52:59.267Z,98232.84
2023-02-25T02:58:07.191Z,98227.44
2023-02-25T03:03:15.505Z,98230.31
2023-02-25T03:08:22.669Z,98237.38
2023-02-25T03:13:25.730Z,98235.69
2023-02-25T03:18:39.054Z,98239.41
2023-02-25T03:23:47.281Z,98259.09
2023-02-25T03:28:50.219Z,98302.16
2023-02-25T03:33:59.082Z,98312.09
2023-02-25T03:39:08.348Z,98312.94
2023-02-25T03:44:16.092Z,98316.47
2023-02-25T03:49:27.975Z,98315.78
2023-02-25T03:54:30.917Z,98322.03
2023-02-25T03:59:33.711Z,98330.09
2023-02-25T04:04:38.197Z,98335.66
2023-02-25T04:09:41.183Z,98352.78
2023-02-25T04:14:44.043Z,98352.94
2023-02-25T04:19:48.228Z,98362.88
2023-02-25T04:24:51.653Z,98364.72
2023-02-25T04:29:54.473Z,98371.97
2023-02-25T04:35:03.031Z,98366.56
2023-02-25T04:40:11.318Z,98374.81
2023-02-25T04:45:14.860Z,98381.03
2023-02-25T04:50:19.761Z,98382.34
2023-02-25T04:55:22.521Z,98383.63
2023-02-25T05:00:27.963Z,98393.00
2023-02-25T05:05:32.139Z,98381.88
2023-02-25T05:10:35.034Z,98376.25
2023-02-25T05:15:37.794Z,98389.19
2023-02-25T05:20:43.936Z,98397.88
2023-02-25T05:25:46.693Z,98400.84
2023-02-25T05:30:52.179Z,98404.97
2023-02-25T05:35:56.485Z,98410.66
2023-02-25T05:41:00.650Z,98411.09
2023-02-25T05:46:04.782Z,98411.53
2023-02-25T05:51:12.267Z,98418.38
2023-02-25T05:56:18.554Z,98423.19
2023-02-25T06:01:23.274Z,98437.06
2023-02-25T06:06:29.468Z,98438.38
2023-02-25T06:11:33.112Z,98446.75
2023-02-25T06:16:35.849Z,98456.09
2023-02-25T06:21:40.308Z,98459.38
2023-02-25T06:26:45.666Z,98455.13
2023-02-25T06:31:48.512Z,98473.41
2023-02-25T06:36:52.686Z,98478.25
2023-02-25T06:41:55.482Z,98491.13
2023-02-25T06:46:58.348Z,98488.00
2023-02-25T06:52:02.581Z,98494.66
2023-02-25T06:57:05.737Z,98516.72
2023-02-25T07:02:11.173Z,98516.47
2023-02-25T07:07:15.445Z,98522.00
2023-02-25T07:12:18.321Z,98527.63
2023-02-25T07:17:21.270Z,98532.16
2023-02-25T07:22:25.866Z,98543.88
2023-02-25T07:27:29.832Z,98544.59
2023-02-25T07:32:33.186Z,98548.56
2023-02-25T07:37:37.708Z,98561.28
2023-02-25T07:42:41.627Z,98576.97
2023-02-25T07:47:44.756Z,98570.88
2023-02-25T07:52:48.878Z,98576.25
2023-02-25T07:57:51.756Z,98574.28
2023-02-25T08:02:54.906Z,98584.75
2023-02-25T08:07:59.129Z,98585.03
2023-02-25T08:13:02.143Z,98586.84
2023-02-25T08:18:05.063Z,98590.03
2023-02-25T08:23:09.381Z,98590.00
2023-02-25T08:28:12.179Z,98594.13
2023-02-25T08:33:14.946Z,98602.19
2023-02-25T08:38:19.759Z,98602.13
2023-02-25T08:43:22.578Z,98619.69
2023-02-25T08:48:25.362Z,98632.72
2023-02-25T08:53:29.410Z,98643.47
2023-02-25T08:58:32.801Z,98656.34
2023-02-25T09:03:36.319Z,98667.56
2023-02-25T09:08:40.501Z,98669.78
2023-02-25T09:13:43.666Z,98674.03
2023-02-25T09:18:46.997Z,98679.00
2023-02-25T09:23:53.054Z,98677.00
2023-02-25T09:28:56.078Z,98690.19
2023-02-25T09:33:58.917Z,98683.66
2023-02-25T09:39:03.815Z,98693.41
2023-02-25T09:44:11.924Z,98695.94
2023-02-25T09:49:22.449Z,98695.81
2023-02-25T09:54:31.234Z,98706.34
2023-02-25T09:59:34.382Z,98708.28
2023-02-25T10:04:44.791Z,98720.91
2023-02-25T10:09:57.481Z,98714.09
2023-02-25T10:15:16.252Z,98721.00
2023-02-25T10:20:39.270Z,98725.41
2023-02-25T10:25:49.495Z,98734.34
2023-02-25T10:30:59.739Z,98756.84
2023-02-25T10:36:09.220Z,98756.44
2023-02-25T10:41:14.538Z,98754.47
2023-02-25T10:46:22.653Z,98768.78
2023-02-25T10:51:28.323Z,98770.16
2023-02-25T10:56:40.908Z,98776.53
2023-02-25T11:01:44.718Z,98778.97
2023-02-25T11:06:48.594Z,98793.91
2023-02-25T11:11:56.580Z,98786.69
2023-02-25T11:17:05.955Z,98787.84
2023-02-25T11:22:16.747Z,98792.00
2023-02-25T11:27:30.141Z,98800.78
2023-02-25T11:32:33.613Z,98801.75
2023-02-25T11:37:40.803Z,98799.25
2023-02-25T11:43:01.532Z,98799.25
2023-02-25T11:48:06.285Z,98811.56
2023-02-25T11:53:20.063Z,98809.16
2023-02-25T11:58:33.008Z,98815.28
2023-02-25T12:04:00.124Z,98820.34
2023-02-25T12:09:33.767Z,98823.19
2023-02-25T12:15:09.711Z,98824.75
2023-02-25T12:20:51.979Z,98833.97
2023-02-25T12:26:06.506Z,98836.81
2023-02-25T12:31:56.914Z,98845.84
2023-02-25T12:37:26.711Z,98854.50
2023-02-25T12:42:54.241Z,98860.72
2023-02-25T12:48:35.269Z,98859.88
2023-02-25T12:53:54.614Z,98869.66
2023-02-25T12:59:16.684Z,98871.34
2023-02-25T13:05:00.470Z,98882.00
2023-02-25T13:10:29.099Z,98876.63
2023-02-25T13:15:40.301Z,98881.56
2023-02-25T13:21:02.012Z,98881.00
2023-02-25T13:26:22.665Z,98889.25
2023-02-25T13:31:37.822Z,98905.25
2023-02-25T13:36:55.462Z,98900.56
2023-02-25T13:42:24.650Z,98902.81
2023-02-25T13:47:44.957Z,98899.88
2023-02-25T13:53:12.497Z,98906.94
2023-02-25T13:58:36.810Z,98909.34
2023-02-25T14:04:07.196Z,98910.91
2023-02-25T14:09:26.487Z,98920.00
2023-02-25T14:14:49.699Z,98924.22
2023-02-25T14:20:07.178Z,98943.22
2023-02-25T14:25:21.425Z,98948.88
2023-02-25T14:30:39.686Z,98959.09
2023-02-25T14:36:08.868Z,98962.22
2023-02-25T14:41:33.202Z,98962.47
2023-02-25T14:46:43.964Z,98968.28
2023-02-25T14:52:19.274Z,98984.88
2023-02-25T14:57:50.608Z,98986.56
2023-02-25T15:03:07.936Z,99031.94
2023-02-25T15:08:34.952Z,99033.47
2023-02-25T15:14:06.939Z,99034.06
2023-02-25T15:19:38.459Z,99049.78
2023-02-25T15:24:42.923Z,99047.09
2023-02-25T15:30:00.997Z,99056.75
2023-02-25T15:35:08.050Z,99061.16
2023-02-25T15:40:50.575Z,99064.69
2023-02-25T15:45:55.992Z,99076.31
2023-02-25T15:51:01.853Z,99088.06
2023-02-25T15:56:47.320Z,99096.16
2023-02-25T16:01:50.236Z,99092.75
2023-02-25T16:06:55.379Z,99106.47
2023-02-25T16:12:06.456Z,99120.78
2023-02-25T16:17:18.304Z,99125.47
2023-02-25T16:22:25.439Z,99131.97
2023-02-25T16:27:45.536Z,99148.13
2023-02-25T16:32:57.203Z,99159.88
2023-02-25T16:38:10.132Z,99164.56
2023-02-25T16:43:16.090Z,99167.25
2023-02-25T16:48:23.132Z,99170.66
2023-02-25T16:53:28.526Z,99176.50
2023-02-25T16:58:31.619Z,99194.69
2023-02-25T17:03:45.690Z,99210.16
2023-02-25T17:08:51.681Z,99226.50
2023-02-25T17:13:56.867Z,99233.19
2023-02-25T17:19:03.877Z,99239.16
2023-02-25T17:24:13.262Z,99242.56
2023-02-25T17:29:17.648Z,99258.88
2023-02-25T17:34:27.895Z,99262.44
2023-02-25T17:39:33.263Z,99273.06
2023-02-25T17:44:47.136Z,99284.38
2023-02-25T17:49:50.998Z,99282.69
2023-02-25T17:54:59.947Z,99287.66
2023-02-25T18:00:20.655Z,99299.28
2023-02-25T18:05:26.128Z,99298.19
2023-02-25T18:10:45.698Z,99304.16
2023-02-25T18:15:58.768Z,99313.75
2023-02-25T18:21:02.760Z,99316.00
2023-02-25T18:26:19.641Z,99326.91
2023-02-25T18:31:24.193Z,99328.34
2023-02-25T18:36:29.107Z,99338.72
2023-02-25T18:41:33.802Z,99347.19
2023-02-25T18:46:36.650Z,99352.47
2023-02-25T18:51:39.921Z,99367.47
2023-02-25T18:56:44.260Z,99363.06
2023-02-25T19:01:47.232Z,99373.72
2023-02-25T19:06:50.083Z,99370.56
2023-02-25T19:11:54.296Z,99382.06
2023-02-25T19:16:57.945Z,99389.81
2023-02-25T19:22:00.903Z,99389.41
2023-02-25T19:27:05.209Z,99400.28
2023-02-25T19:32:08.109Z,99403.69
2023-02-25T19:37:11.136Z,99413.59
2023-02-25T19:42:15.511Z,99426.56
2023-02-25T19:47:18.351Z,99425.53
2023-02-25T19:52:21.103Z,99437.00
2023-02-25T19:57:25.278Z,99440.44
2023-02-25T20:02:28.112Z,99440.03
2023-02-25T20:07:31.700Z,99447.16
2023-02-25T20:12:35.991Z,99449.00
2023-02-25T20:17:39.358Z,99452.41
2023-02-25T20:22:42.757Z,99468.97
2023-02-25T20:27:46.984Z,99472.84
2023-02-25T20:32:49.903Z,99478.22
2023-02-25T20:38:10.144Z,99489.75
2023-02-25T20:43:15.259Z,99490.47
2023-02-25T20:48:28.277Z,99502.84
2023-02-25T20:53:32.453Z,99505.13
2023-02-25T20:58:36.653Z,99511.25
2023-02-25T21:03:39.521Z,99525.28
2023-02-25T21:08:42.644Z,99521.91
2023-02-25T21:13:47.806Z,99526.44
2023-02-25T21:18:51.618Z,99541.50
2023-02-25T21:23:54.628Z,99537.22
2023-02-25T21:28:58.771Z,99540.78
2023-02-25T21:34:02.000Z,99547.88
2023-02-25T21:39:07.007Z,99553.56
2023-02-25T21:44:12.081Z,99550.44
2023-02-25T21:49:14.997Z,99561.97
2023-02-25T21:54:18.281Z,99560.31
2023-02-25T21:59:23.449Z,99570.59
2023-02-25T22:04:26.508Z,99568.59
2023-02-25T22:09:29.511Z,99577.06
2023-02-25T22:14:33.949Z,99573.06
2023-02-25T22:19:36.666Z,99575.03
2023-02-25T22:24:39.497Z,99591.41
2023-02-25T22:29:43.766Z,99586.38
2023-02-25T22:34:46.570Z,99586.16
2023-02-25T22:39:49.298Z,99593.84
2023-02-25T22:44:53.722Z,99602.69
2023-02-25T22:49:56.454Z,99606.75
2023-02-25T22:54:59.222Z,99613.19
2023-02-25T23:00:04.058Z,99609.31
2023-02-25T23:05:08.185Z,99615.78
2023-02-25T23:10:11.901Z,99621.19
2023-02-25T23:15:16.604Z,99630.34
2023-02-25T23:20:19.798Z,99634.91
2023-02-25T23:25:22.689Z,99636.13
2023-02-25T23:30:27.588Z,99643.22
2023-02-25T23:35:30.405Z,99650.44
2023-02-25T23:40:33.356Z,99657.44
2023-02-25T23:45:37.493Z,99664.78
2023-02-25T23:50:40.288Z,99662.06
2023-02-25T23:55:43.068Z,99672.84
